createdAt,value
2022-08-24T00:01:50.032Z,56.23
2022-08-24T00:04:38.624Z,56.60
2022-08-24T00:10:40.217Z,57.23
2022-08-24T00:16:18.735Z,58.66
2022-08-24T00:21:55.431Z,58.70
2022-08-24T00:33:20.379Z,58.43
2022-08-24T00:36:10.600Z,58.55
2022-08-24T00:41:48.394Z,58.85
2022-08-24T00:47:26.118Z,58.96
2022-08-24T00:53:05.099Z,60.01
2022-08-24T00:55:56.104Z,59.63
2022-08-24T01:01:30.040Z,59.92
2022-08-24T01:07:07.342Z,60.01
2022-08-24T01:12:42.263Z,61.95
2022-08-24T01:18:35.250Z,61.95
2022-08-24T01:24:16.136Z,62.50
2022-08-24T01:27:05.298Z,62.03
2022-08-24T01:29:56.039Z,60.91
2022-08-24T01:35:41.341Z,63.09
2022-08-24T01:41:31.305Z,63.69
2022-08-24T01:44:21.121Z,63.90
2022-08-24T01:47:11.086Z,64.24
2022-08-24T01:53:06.322Z,65.85
2022-08-24T01:58:34.952Z,65.66
2022-08-24T02:04:10.054Z,65.29
2022-08-24T02:09:44.272Z,66.01
2022-08-24T02:15:20.286Z,67.12
2022-08-24T02:20:58.184Z,67.50
2022-08-24T02:23:46.649Z,66.82
2022-08-24T02:29:19.620Z,67.86
2022-08-24T02:32:08.357Z,68.54
2022-08-24T02:37:36.406Z,69.38
2022-08-24T02:43:25.656Z,68.60
2022-08-24T02:49:11.648Z,70.17
2022-08-24T02:54:37.137Z,71.00
2022-08-24T02:57:25.597Z,71.92
2022-08-24T03:02:56.417Z,72.36
2022-08-24T03:05:44.706Z,72.67
2022-08-24T03:11:38.199Z,73.29
2022-08-24T03:17:06.956Z,72.91
2022-08-24T03:22:43.542Z,73.73
2022-08-24T03:25:33.655Z,74.19
2022-08-24T03:28:23.525Z,74.04
2022-08-24T03:34:04.676Z,74.17
2022-08-24T03:39:40.703Z,73.73
2022-08-24T03:42:29.254Z,73.33
2022-08-24T03:45:18.639Z,72.75
2022-08-24T03:48:08.137Z,72.58
2022-08-24T03:53:43.789Z,70.27
2022-08-24T03:56:32.255Z,70.30
2022-08-24T04:02:05.930Z,71.38
2022-08-24T04:07:40.564Z,70.11
2022-08-24T04:13:13.278Z,71.65
2022-08-24T04:18:54.164Z,71.22
2022-08-24T04:21:44.215Z,71.06
2022-08-24T04:24:36.015Z,71.04
2022-08-24T04:30:06.065Z,70.35
2022-08-24T04:35:45.435Z,70.85
2022-08-24T04:41:16.322Z,71.69
2022-08-24T04:46:58.289Z,71.87
2022-08-24T04:52:27.605Z,73.86
2022-08-24T04:58:04.466Z,73.63
2022-08-24T05:03:34.455Z,73.29
2022-08-24T05:09:12.880Z,73.40
2022-08-24T05:17:32.874Z,74.59
2022-08-24T05:20:21.581Z,74.35
2022-08-24T05:23:10.541Z,73.68
2022-08-24T05:28:55.411Z,68.54
2022-08-24T05:31:46.573Z,62.35
2022-08-24T05:37:44.046Z,53.58
2022-08-24T05:43:24.839Z,49.39
2022-08-24T05:46:13.711Z,49.50
2022-08-24T05:49:02.704Z,48.71
2022-08-24T05:54:40.900Z,48.10
2022-08-24T06:00:20.645Z,50.68
2022-08-24T06:03:14.591Z,52.35
2022-08-24T06:08:50.161Z,58.40
2022-08-24T06:11:40.455Z,60.03
2022-08-24T06:14:28.863Z,61.78
2022-08-24T06:20:03.965Z,62.65
2022-08-24T06:22:52.247Z,63.30
2022-08-24T06:31:17.791Z,62.95
2022-08-24T06:34:06.105Z,63.71
2022-08-24T06:36:54.190Z,64.01
2022-08-24T06:42:30.287Z,63.24
2022-08-24T06:45:18.805Z,64.18
2022-08-24T06:48:07.745Z,64.87
2022-08-24T06:53:45.352Z,64.87
2022-08-24T06:59:22.577Z,63.29
2022-08-24T07:04:58.511Z,56.67
2022-08-24T07:10:30.320Z,52.92
2022-08-24T07:16:05.546Z,49.02
2022-08-24T07:18:54.987Z,47.54
2022-08-24T07:24:29.965Z,46.28
2022-08-24T07:30:26.478Z,47.04
2022-08-24T07:33:01.255Z,47.13
2022-08-24T07:35:55.142Z,47.42
2022-08-24T07:38:44.403Z,47.89
2022-08-24T07:44:24.483Z,46.98
2022-08-24T07:47:36.958Z,47.33
2022-08-24T07:52:45.689Z,49.39
2022-08-24T07:55:34.915Z,49.43
2022-08-24T08:01:11.752Z,49.61
2022-08-24T08:04:00.199Z,49.25
2022-08-24T08:09:31.462Z,48.38
2022-08-24T08:15:08.771Z,49.59
2022-08-24T08:17:57.390Z,49.12
2022-08-24T08:20:47.107Z,49.54
2022-08-24T08:26:38.736Z,49.57
2022-08-24T08:32:16.946Z,50.93
2022-08-24T08:35:06.123Z,49.95
2022-08-24T08:43:56.119Z,49.60
2022-08-24T08:50:05.224Z,48.87
2022-08-24T08:56:13.219Z,49.37
2022-08-24T09:01:53.107Z,49.41
2022-08-24T09:07:44.613Z,48.00
2022-08-24T09:10:55.438Z,48.22
2022-08-24T09:17:13.298Z,48.67
2022-08-24T09:20:26.118Z,49.07
2022-08-24T09:26:07.398Z,47.21
2022-08-24T09:31:53.143Z,45.48
2022-08-24T09:37:41.708Z,44.57
2022-08-24T09:47:12.328Z,44.29
2022-08-24T09:53:21.477Z,42.55
2022-08-24T09:56:28.667Z,43.00
2022-08-24T09:59:25.179Z,43.43
2022-08-24T10:05:12.597Z,41.47
2022-08-24T10:13:43.653Z,39.98
2022-08-24T10:19:43.386Z,39.76
2022-08-24T10:25:30.732Z,38.58
2022-08-24T10:31:14.373Z,38.39
2022-08-24T10:37:05.273Z,38.19
2022-08-24T10:40:09.514Z,38.18
2022-08-24T10:53:15.672Z,37.11
2022-08-24T10:59:04.508Z,36.99
2022-08-24T11:08:02.925Z,36.42
2022-08-24T11:11:17.068Z,37.14
2022-08-24T11:14:12.586Z,36.57
2022-08-24T11:17:15.574Z,35.68
2022-08-24T11:20:05.921Z,36.83
2022-08-24T11:25:51.121Z,36.41
2022-08-24T11:28:42.891Z,36.40
2022-08-24T11:34:21.894Z,36.96
2022-08-24T11:39:57.438Z,35.90
2022-08-24T11:42:54.587Z,35.80
2022-08-24T11:48:37.426Z,33.92
2022-08-24T11:51:36.398Z,35.74
2022-08-24T11:57:18.232Z,34.81
2022-08-24T12:03:00.876Z,35.46
2022-08-24T12:05:53.263Z,34.94
2022-08-24T12:11:29.434Z,36.18
2022-08-24T12:17:02.163Z,36.72
2022-08-24T12:25:41.777Z,36.65
2022-08-24T12:28:34.257Z,35.92
2022-08-24T12:31:25.393Z,36.92
2022-08-24T12:34:18.488Z,36.25
2022-08-24T12:39:56.671Z,37.05
2022-08-24T12:45:30.145Z,34.91
2022-08-24T12:51:14.936Z,34.45
2022-08-24T12:57:11.177Z,34.08
2022-08-24T13:02:57.887Z,34.52
2022-08-24T13:11:32.346Z,32.57
2022-08-24T13:14:23.931Z,31.73
2022-08-24T13:20:19.401Z,33.01
2022-08-24T13:25:59.953Z,33.57
2022-08-24T13:31:52.411Z,32.64
2022-08-24T13:37:33.319Z,31.94
2022-08-24T13:43:26.935Z,33.03
2022-08-24T13:49:07.409Z,32.12
2022-08-24T13:54:45.359Z,32.47
2022-08-24T13:57:40.171Z,31.95
2022-08-24T14:00:39.974Z,32.00
2022-08-24T14:03:53.150Z,31.49
2022-08-24T14:09:38.603Z,32.28
2022-08-24T14:12:40.099Z,32.19
2022-08-24T14:18:34.372Z,32.62
2022-08-24T14:21:25.165Z,32.52
2022-08-24T14:27:20.625Z,30.49
2022-08-24T14:30:50.202Z,30.67
2022-08-24T14:36:31.882Z,31.04
2022-08-24T14:42:17.404Z,30.57
2022-08-24T14:45:10.291Z,30.88
2022-08-24T14:48:05.658Z,31.55
2022-08-24T14:53:58.615Z,32.71
2022-08-24T14:59:47.059Z,33.85
2022-08-24T15:05:39.644Z,33.54
2022-08-24T15:11:32.187Z,33.61
2022-08-24T15:17:12.573Z,34.58
2022-08-24T15:22:58.179Z,34.89
2022-08-24T15:28:37.567Z,35.22
2022-08-24T15:34:16.216Z,35.04
2022-08-24T15:39:53.253Z,34.89
2022-08-24T15:45:29.129Z,35.41
2022-08-24T15:48:21.354Z,35.97
2022-08-24T15:53:58.314Z,35.58
2022-08-24T16:02:28.224Z,36.10
2022-08-24T16:05:22.313Z,35.50
2022-08-24T16:13:47.610Z,36.64
2022-08-24T16:22:07.230Z,36.14
2022-08-24T16:25:12.241Z,36.99
2022-08-24T16:33:44.012Z,37.14
2022-08-24T16:39:13.598Z,37.61
2022-08-24T16:44:52.045Z,37.90
2022-08-24T16:53:14.147Z,38.85
2022-08-24T16:56:04.142Z,39.03
2022-08-24T17:01:42.372Z,40.05
2022-08-24T17:04:31.602Z,39.96
2022-08-24T17:10:10.574Z,40.87
2022-08-24T17:15:44.609Z,40.97
2022-08-24T17:21:19.339Z,41.63
2022-08-24T17:26:57.330Z,41.91
2022-08-24T17:29:46.709Z,42.11
2022-08-24T17:35:21.745Z,42.83
2022-08-24T17:41:00.924Z,42.96
2022-08-24T17:46:35.259Z,43.32
2022-08-24T17:49:23.900Z,43.44
2022-08-24T17:55:01.023Z,43.84
2022-08-24T18:00:39.743Z,44.11
2022-08-24T18:03:28.316Z,44.23
2022-08-24T18:06:19.320Z,44.89
2022-08-24T18:09:10.936Z,45.25
2022-08-24T18:11:59.747Z,45.84
2022-08-24T18:14:48.276Z,46.42
2022-08-24T18:20:29.792Z,46.49
2022-08-24T18:26:06.590Z,47.24
2022-08-24T18:34:25.923Z,48.22
2022-08-24T18:40:02.338Z,48.51
2022-08-24T18:45:44.210Z,49.53
2022-08-24T18:51:24.315Z,50.44
2022-08-24T18:57:00.938Z,51.15
2022-08-24T19:02:35.971Z,51.00
2022-08-24T19:08:12.369Z,52.06
2022-08-24T19:13:57.668Z,53.27
2022-08-24T19:19:34.879Z,54.04
2022-08-24T19:22:24.107Z,53.28
2022-08-24T19:28:12.706Z,55.17
2022-08-24T19:33:49.900Z,55.62
2022-08-24T19:39:31.716Z,56.25
2022-08-24T19:45:24.915Z,56.51
2022-08-24T19:50:56.988Z,56.90
2022-08-24T19:53:49.494Z,57.31
2022-08-24T19:59:38.946Z,57.72
2022-08-24T20:02:31.401Z,57.02
2022-08-24T20:05:30.690Z,57.25
2022-08-24T20:14:10.598Z,58.12
2022-08-24T20:19:57.461Z,58.44
2022-08-24T20:22:46.108Z,58.67
2022-08-24T20:25:39.253Z,58.91
2022-08-24T20:31:14.495Z,59.58
2022-08-24T20:34:02.707Z,59.51
2022-08-24T20:39:36.865Z,59.43
2022-08-24T20:42:26.082Z,59.59
2022-08-24T20:48:07.245Z,60.05
2022-08-24T20:50:56.473Z,60.80
2022-08-24T20:56:30.772Z,60.79
2022-08-24T20:59:19.915Z,60.84
2022-08-24T21:21:33.472Z,61.19
2022-08-24T21:27:03.713Z,61.73
2022-08-24T21:33:00.465Z,62.40
2022-08-24T21:35:48.904Z,62.53
2022-08-24T21:38:37.518Z,62.92
2022-08-24T21:41:30.495Z,63.10
2022-08-24T21:46:59.626Z,64.02
2022-08-24T21:49:48.659Z,64.09
2022-08-24T21:55:16.479Z,64.55
2022-08-24T22:00:52.456Z,64.49
2022-08-24T22:06:31.522Z,65.16
2022-08-24T22:12:05.595Z,65.52
2022-08-24T22:17:33.540Z,66.03
2022-08-24T22:23:15.181Z,65.77
2022-08-24T22:28:51.367Z,66.24
2022-08-24T22:34:27.718Z,66.55
2022-08-24T22:40:01.897Z,67.16
2022-08-24T22:42:50.096Z,67.29
2022-08-24T22:48:26.778Z,68.00
2022-08-24T22:54:01.581Z,68.33
2022-08-24T22:56:52.756Z,69.03
2022-08-24T23:02:23.651Z,69.82
2022-08-24T23:07:56.291Z,69.78
2022-08-24T23:13:28.663Z,70.20
2022-08-24T23:19:22.283Z,70.78
2022-08-24T23:24:58.365Z,71.06
2022-08-24T23:30:33.367Z,72.11
2022-08-24T23:36:24.773Z,73.16
2022-08-24T23:39:15.553Z,72.82
2022-08-24T23:44:55.141Z,73.95
2022-08-24T23:50:29.166Z,74.93
2022-08-24T23:56:10.883Z,75.62
2022-08-24T23:59:04.422Z,75.58
